Time;durP1;ratioP1;P1;durP2;ratioP2;P2;SDS_P1;SDS_P2;PMS_P1;PMS_P2;Temp;Humidity;BMP_temperature;BMP_pressure;BME280_temperature;BME280_humidity;BME280_pressure;Samples;Min_cycle;Max_cycle;Signal;HPM_P1;HPM_P2
2023/03/25 00:01:57;;;;;;;7.50;0.80;;;;;;;19.43;40.14;100236.00;16112586;19;130109;-50
2023/03/25 00:07:21;;;;;;;5.22;1.10;;;;;;;19.41;40.12;100231.81;16113131;19;129516;-46
2023/03/25 00:12:43;;;;;;;6.38;1.08;;;;;;;19.38;40.33;100239.56;16123289;19;130527;-47
2023/03/25 00:18:06;;;;;;;4.68;1.00;;;;;;;19.36;40.15;100232.63;16125535;19;130307;-46
2023/03/25 00:23:29;;;;;;;5.57;0.80;;;;;;;19.34;39.87;100237.63;16119824;19;129992;-51
2023/03/25 00:28:51;;;;;;;7.72;1.67;;;;;;;19.32;40.11;100245.38;16123381;19;130704;-46
2023/03/25 00:34:13;;;;;;;7.00;1.10;;;;;;;19.29;40.03;100245.88;16121605;19;130814;-44
2023/03/25 00:39:36;;;;;;;4.47;0.85;;;;;;;19.26;40.03;100236.19;16123584;19;129351;-47
2023/03/25 00:44:58;;;;;;;3.70;0.90;;;;;;;19.24;40.25;100243.91;16124826;19;129802;-41
2023/03/25 00:50:20;;;;;;;5.32;1.65;;;;;;;19.22;39.81;100254.44;16123062;19;129944;-45
2023/03/25 00:55:42;;;;;;;1.42;0.70;;;;;;;19.19;40.16;100249.41;16123554;19;130785;-46
2023/03/25 01:01:14;;;;;;;3.70;0.80;;;;;;;19.17;39.67;100244.13;16124867;19;130366;-44
2023/03/25 01:06:42;;;;;;;4.30;0.80;;;;;;;19.15;39.78;100245.50;16113674;19;135539;-51
2023/03/25 01:12:05;;;;;;;3.83;0.70;;;;;;;19.14;39.96;100246.59;16120662;19;129431;-50
2023/03/25 01:17:27;;;;;;;3.70;0.90;;;;;;;19.11;39.81;100247.13;16111445;19;130562;-50
2023/03/25 01:22:49;;;;;;;4.05;1.10;;;;;;;19.08;39.59;100249.31;16119266;19;130878;-44
2023/03/25 01:28:10;;;;;;;4.03;1.30;;;;;;;19.06;39.61;100247.91;16117937;19;130300;-49
2023/03/25 01:33:33;;;;;;;3.92;0.80;;;;;;;19.03;40.08;100240.97;16120936;19;129582;-52
2023/03/25 01:38:57;;;;;;;2.78;0.65;;;;;;;19.01;39.87;100240.41;16116148;19;130087;-47
2023/03/25 01:44:19;;;;;;;2.67;0.80;;;;;;;19.01;39.91;100222.97;16115198;19;130094;-51
2023/03/25 01:49:44;;;;;;;3.38;0.70;;;;;;;18.98;39.75;100224.31;16114581;19;130095;-47
2023/03/25 01:55:07;;;;;;;0.80;0.60;;;;;;;18.97;39.92;100216.25;16118706;19;129320;-51
2023/03/25 02:00:31;;;;;;;3.38;0.70;;;;;;;18.96;39.81;100220.13;16114561;19;132330;-46
2023/03/25 02:06:02;;;;;;;4.15;1.00;;;;;;;18.93;39.40;100207.66;16118269;19;131152;-41
2023/03/25 02:11:28;;;;;;;2.72;0.70;;;;;;;18.90;39.84;100206.22;16113354;19;129533;-41
2023/03/25 02:17:11;;;;;;;4.28;0.63;;;;;;;18.90;39.79;100199.84;16114944;19;129151;-41
2023/03/25 02:22:36;;;;;;;3.78;0.90;;;;;;;18.87;39.59;100194.84;16116231;19;130714;-42
2023/03/25 02:28:24;;;;;;;4.00;0.70;;;;;;;18.85;39.59;100185.94;16114585;19;130028;-41
2023/03/25 02:34:31;;;;;;;2.80;0.90;;;;;;;18.84;39.42;100189.81;16112121;19;130059;-40
2023/03/25 02:40:00;;;;;;;3.42;0.70;;;;;;;18.82;39.26;100190.09;16116483;19;129634;-40
2023/03/25 02:45:36;;;;;;;1.70;0.70;;;;;;;18.82;39.51;100175.41;16114178;19;129615;-40
2023/03/25 02:51:03;;;;;;;3.58;1.05;;;;;;;18.79;39.82;100176.75;16112714;19;130491;-40
2023/03/25 02:56:28;;;;;;;5.07;0.98;;;;;;;18.77;39.48;100177.03;16110841;19;130352;-41
2023/03/25 03:01:57;;;;;;;1.73;0.55;;;;;;;18.77;39.49;100165.09;16108844;19;129499;-41
2023/03/25 03:07:23;;;;;;;2.78;0.52;;;;;;;18.76;39.27;100163.47;16111377;19;129040;-40
2023/03/25 03:13:01;;;;;;;1.58;0.70;;;;;;;18.75;39.47;100176.47;16110072;19;129818;-41
2023/03/25 03:18:33;;;;;;;3.42;1.13;;;;;;;18.73;39.19;100195.28;16109434;19;129807;-42
2023/03/25 03:24:33;;;;;;;2.50;0.80;;;;;;;18.70;39.10;100183.91;16108750;19;129934;-40
2023/03/25 03:30:01;;;;;;;2.65;0.80;;;;;;;18.70;39.02;100190.31;16102087;19;131262;-40
2023/03/25 03:35:48;;;;;;;4.38;1.08;;;;;;;18.70;39.03;100195.00;16102894;19;129732;-41
2023/03/25 03:41:15;;;;;;;4.50;1.48;;;;;;;18.67;39.25;100196.38;16098474;19;129812;-41
2023/03/25 03:46:40;;;;;;;3.28;1.05;;;;;;;18.65;39.42;100184.69;16117263;19;129449;-46
2023/03/25 03:52:29;;;;;;;5.18;0.80;;;;;;;18.65;39.43;100186.63;16117170;19;130260;-42
2023/03/25 03:57:58;;;;;;;4.47;0.80;;;;;;;18.65;39.43;100192.16;16113058;19;131672;-41
2023/03/25 04:03:27;;;;;;;2.58;0.82;;;;;;;18.63;38.98;100178.59;16123038;19;129865;-41
2023/03/25 04:09:18;;;;;;;4.82;0.80;;;;;;;18.59;39.18;100174.66;16121005;19;129322;-43
2023/03/25 04:14:41;;;;;;;4.05;0.95;;;;;;;18.59;39.00;100188.53;16120294;19;131389;-41
2023/03/25 04:20:10;;;;;;;2.42;0.82;;;;;;;18.57;39.38;100186.03;16117727;19;130097;-43
2023/03/25 04:25:32;;;;;;;2.78;0.80;;;;;;;18.56;39.19;100183.53;16115015;19;131821;-41
2023/03/25 04:30:54;;;;;;;6.25;1.02;;;;;;;18.54;38.90;100181.00;16118535;19;131160;-44
2023/03/25 04:36:16;;;;;;;5.45;0.95;;;;;;;18.53;38.99;100181.28;16120417;19;133863;-42
2023/03/25 04:41:38;;;;;;;3.85;1.00;;;;;;;18.52;39.26;100197.06;16121694;19;131946;-40
2023/03/25 04:47:01;;;;;;;2.55;0.98;;;;;;;18.52;39.04;100215.63;16115709;19;129772;-42
2023/03/25 04:52:23;;;;;;;4.53;0.93;;;;;;;18.51;39.00;100222.25;16113602;19;129576;-41
2023/03/25 04:57:46;;;;;;;3.97;0.90;;;;;;;18.49;38.88;100222.53;16120325;19;129697;-40
2023/03/25 05:03:10;;;;;;;3.85;1.00;;;;;;;18.48;39.25;100220.84;16112736;19;130842;-42
2023/03/25 05:08:32;;;;;;;3.47;0.85;;;;;;;18.47;39.22;100221.94;16115334;19;130409;-43
2023/03/25 05:13:54;;;;;;;4.20;1.00;;;;;;;18.46;39.23;100223.03;16116647;19;129781;-40
2023/03/25 05:19:17;;;;;;;3.97;1.13;;;;;;;18.44;39.10;100217.78;16118720;19;131460;-42
2023/03/25 05:24:43;;;;;;;3.10;0.85;;;;;;;18.43;39.22;100218.88;16110964;19;131129;-41
2023/03/25 05:30:07;;;;;;;3.33;0.88;;;;;;;18.42;39.17;100219.13;16114048;19;131991;-40
2023/03/25 05:35:29;;;;;;;2.75;0.80;;;;;;;18.40;39.21;100219.38;16113286;19;129761;-41
2023/03/25 05:40:51;;;;;;;4.18;0.93;;;;;;;18.38;38.76;100232.63;16109780;19;132213;-40
2023/03/25 05:46:13;;;;;;;2.90;1.00;;;;;;;18.39;38.81;100245.41;16109802;19;131271;-41
2023/03/25 05:51:36;;;;;;;2.45;0.70;;;;;;;18.37;38.69;100252.28;16111015;19;129516;-41
2023/03/25 05:56:58;;;;;;;16.20;1.48;;;;;;;18.31;38.88;100256.94;16103143;19;130418;-41
2023/03/25 06:02:20;;;;;;;15.23;1.55;;;;;;;18.29;38.74;100256.34;16108104;19;130042;-43
2023/03/25 06:07:46;;;;;;;16.80;2.15;;;;;;;18.45;38.16;100247.16;16112153;19;130425;-41
2023/03/25 06:13:08;;;;;;;16.10;1.95;;;;;;;18.75;38.05;100250.47;16110024;19;131681;-42
2023/03/25 06:18:30;;;;;;;22.35;1.83;;;;;;;19.02;37.55;100255.94;16115194;19;129577;-43
2023/03/25 06:23:52;;;;;;;13.88;1.92;;;;;;;19.25;37.29;100255.88;16114967;19;131496;-42
2023/03/25 06:29:15;;;;;;;13.63;1.48;;;;;;;19.42;37.00;100269.56;16113218;19;129548;-41
2023/03/25 06:34:38;;;;;;;14.35;1.30;;;;;;;19.50;36.59;100269.06;16115053;19;129978;-42
2023/03/25 06:40:00;;;;;;;10.18;2.25;;;;;;;19.54;37.01;100264.63;16110898;19;130949;-44
2023/03/25 06:45:22;;;;;;;11.35;1.60;;;;;;;19.55;37.01;100273.78;16113036;19;129837;-41
2023/03/25 06:50:44;;;;;;;8.93;1.48;;;;;;;19.53;37.03;100269.34;16110442;19;132227;-41
2023/03/25 06:56:06;;;;;;;10.68;1.52;;;;;;;19.51;36.48;100265.19;16113559;19;129803;-41
2023/03/25 07:01:28;;;;;;;10.88;1.60;;;;;;;19.47;36.92;100269.56;16111632;19;130354;-40
2023/03/25 07:06:51;;;;;;;7.75;1.77;;;;;;;19.43;36.64;100279.56;16109180;19;131550;-41
2023/03/25 07:12:13;;;;;;;9.07;1.77;;;;;;;19.38;36.92;100272.88;16108789;19;131329;-42
2023/03/25 07:17:35;;;;;;;6.47;1.67;;;;;;;19.32;36.80;100275.88;16105567;19;130139;-40
2023/03/25 07:22:56;;;;;;;9.35;1.25;;;;;;;19.26;37.04;100272.22;16107522;19;130887;-41
2023/03/25 07:28:18;;;;;;;8.05;1.65;;;;;;;19.23;36.73;100275.53;16107683;19;130050;-41
2023/03/25 07:33:40;;;;;;;6.55;1.50;;;;;;;19.22;36.82;100274.72;16108767;19;129668;-40
2023/03/25 07:39:02;;;;;;;12.77;1.80;;;;;;;19.23;36.96;100294.94;16107360;19;131167;-41
2023/03/25 07:44:24;;;;;;;10.10;1.70;;;;;;;19.29;36.63;100290.25;16109222;19;129039;-43
2023/03/25 07:49:48;;;;;;;5.50;1.60;;;;;;;19.62;35.96;100282.72;16106403;19;129813;-41
2023/03/25 07:55:11;;;;;;;13.40;1.70;;;;;;;20.08;35.90;100296.84;16108378;19;129912;-41
2023/03/25 08:00:33;;;;;;;7.95;1.70;;;;;;;20.50;35.05;100294.19;16107940;19;129982;-41
2023/03/25 08:05:55;;;;;;;12.85;2.10;;;;;;;20.74;34.62;100309.22;16106334;19;129703;-42
2023/03/25 08:11:17;;;;;;;15.27;2.20;;;;;;;20.84;34.49;100296.50;16107620;19;130653;-41
2023/03/25 08:16:38;;;;;;;7.07;1.92;;;;;;;20.82;34.46;100316.22;16105128;19;130182;-40
2023/03/25 08:22:01;;;;;;;10.52;2.08;;;;;;;20.75;34.04;100329.53;16107912;19;131068;-41
2023/03/25 08:27:23;;;;;;;11.98;1.90;;;;;;;20.64;34.67;100320.34;16100896;19;130201;-41
2023/03/25 08:32:45;;;;;;;10.23;2.20;;;;;;;20.52;34.53;100317.81;16119904;19;130814;-41
2023/03/25 08:38:07;;;;;;;12.27;2.15;;;;;;;20.42;34.89;100328.91;16119533;19;130009;-41
2023/03/25 08:43:30;;;;;;;7.25;1.63;;;;;;;20.30;35.02;100340.25;16116628;19;129474;-41
2023/03/25 08:48:52;;;;;;;9.75;2.10;;;;;;;20.17;34.81;100349.94;16116339;19;129549;-40
2023/03/25 08:54:14;;;;;;;8.50;2.28;;;;;;;20.08;35.28;100351.53;16121755;19;129798;-41
2023/03/25 08:59:36;;;;;;;7.75;2.00;;;;;;;19.93;35.72;100355.91;16115495;19;131541;-42
2023/03/25 09:04:58;;;;;;;14.02;2.38;;;;;;;19.83;35.50;100339.16;16121640;19;129839;-41
2023/03/25 09:10:20;;;;;;;7.25;1.95;;;;;;;19.81;35.54;100331.09;16118422;19;130197;-42
2023/03/25 09:15:44;;;;;;;8.93;1.70;;;;;;;19.95;35.49;100342.56;16115104;19;129435;-41
2023/03/25 09:21:06;;;;;;;6.88;1.98;;;;;;;20.28;35.29;100350.78;16118742;19;130666;-42
2023/03/25 09:26:28;;;;;;;15.27;2.35;;;;;;;20.71;35.11;100342.31;16119621;19;129783;-42
2023/03/25 09:31:50;;;;;;;11.45;2.45;;;;;;;21.07;34.51;100353.50;16117930;19;129379;-41
2023/03/25 09:37:12;;;;;;;20.08;2.78;;;;;;;21.24;34.45;100369.09;16117349;19;130863;-41
2023/03/25 09:42:57;;;;;;;21.92;2.67;;;;;;;21.38;33.71;100367.44;16116499;19;130736;-41
2023/03/25 09:48:36;;;;;;;10.45;2.15;;;;;;;21.51;33.52;100372.47;16115659;19;129670;-41
2023/03/25 09:54:07;;;;;;;12.68;2.10;;;;;;;21.64;33.39;100371.06;16115657;19;131368;-41
2023/03/25 09:59:43;;;;;;;19.10;2.80;;;;;;;21.77;33.33;100385.50;16115521;19;131652;-40
2023/03/25 10:05:14;;;;;;;17.47;2.90;;;;;;;21.85;32.96;100361.84;16114366;19;132141;-42
2023/03/25 10:10:51;;;;;;;11.45;2.83;;;;;;;21.93;33.25;100378.81;16110829;19;134081;-41
2023/03/25 10:16:15;;;;;;;17.20;3.03;;;;;;;21.96;33.33;100385.75;16114913;19;131321;-42
2023/03/25 10:21:40;;;;;;;17.93;3.43;;;;;;;22.02;33.18;100408.84;16115300;19;129465;-43
2023/03/25 10:27:10;;;;;;;24.13;4.47;;;;;;;22.08;33.04;100400.19;16113070;19;129890;-40
2023/03/25 10:32:52;;;;;;;21.77;4.20;;;;;;;22.15;33.35;100407.44;16114721;19;130455;-41
2023/03/25 10:38:19;;;;;;;16.83;3.50;;;;;;;22.15;33.15;100390.72;16112919;19;129626;-41
2023/03/25 10:43:42;;;;;;;16.65;3.78;;;;;;;22.11;33.82;100409.94;16113925;19;133344;-41
2023/03/25 10:49:04;;;;;;;12.80;3.42;;;;;;;22.02;34.02;100415.28;16113075;19;129495;-41
2023/03/25 10:54:33;;;;;;;21.92;4.25;;;;;;;21.88;34.19;100419.75;16112827;19;129769;-40
2023/03/25 11:00:01;;;;;;;11.88;3.05;;;;;;;21.74;34.51;100430.63;16113250;19;130136;-40
2023/03/25 11:05:27;;;;;;;14.43;3.50;;;;;;;21.59;34.27;100440.66;16106650;19;129955;-40
2023/03/25 11:10:57;;;;;;;18.25;3.38;;;;;;;21.49;34.89;100422.00;16111318;19;130696;-40
2023/03/25 11:16:19;;;;;;;14.45;2.90;;;;;;;21.40;34.92;100415.31;16110864;19;131201;-41
2023/03/25 11:21:46;;;;;;;16.35;2.80;;;;;;;21.30;35.13;100420.84;16111852;19;129709;-41
2023/03/25 11:27:10;;;;;;;21.23;3.25;;;;;;;21.20;35.59;100455.06;16111057;19;130368;-40
2023/03/25 11:32:40;;;;;;;20.88;3.53;;;;;;;21.11;35.55;100457.53;16109708;19;129273;-41
2023/03/25 11:38:18;;;;;;;16.27;3.20;;;;;;;21.05;35.24;100437.22;16110273;19;130169;-42
2023/03/25 11:43:40;;;;;;;13.85;2.80;;;;;;;20.98;35.50;100419.97;16106859;19;129912;-41
2023/03/25 11:49:11;;;;;;;11.13;2.65;;;;;;;20.95;35.62;100433.56;16107762;19;129670;-41
2023/03/25 11:54:34;;;;;;;12.38;2.65;;;;;;;20.92;35.30;100415.50;16106482;19;130400;-39
2023/03/25 12:00:15;;;;;;;17.17;3.00;;;;;;;20.96;35.78;100421.34;16107128;19;133774;-40
2023/03/25 12:05:39;;;;;;;13.70;2.75;;;;;;;20.97;36.67;100423.03;16122145;19;129593;-40
2023/03/25 12:11:08;;;;;;;22.65;2.70;;;;;;;21.02;37.30;100418.31;16123819;19;129668;-41
2023/03/25 12:16:57;;;;;;;10.85;2.42;;;;;;;21.06;37.15;100415.81;16122685;19;130765;-43
2023/03/25 12:22:41;;;;;;;19.75;2.65;;;;;;;21.02;37.27;100420.25;16122249;19;130004;-45
2023/03/25 12:28:33;;;;;;;22.92;2.35;;;;;;;21.01;38.03;100418.59;16123498;19;131262;-41
2023/03/25 12:34:16;;;;;;;16.52;2.22;;;;;;;21.00;38.51;100439.16;16126430;19;130407;-45
2023/03/25 12:40:16;;;;;;;27.67;3.03;;;;;;;21.01;38.98;100438.06;16127632;19;132006;-42
2023/03/25 12:46:03;;;;;;;13.73;2.60;;;;;;;21.03;39.33;100438.63;16123481;19;129663;-40
2023/03/25 12:51:31;;;;;;;20.15;2.60;;;;;;;21.02;39.65;100417.47;16124179;19;129697;-45
2023/03/25 12:57:18;;;;;;;11.77;2.47;;;;;;;21.00;40.33;100433.59;16123182;19;129598;-45
2023/03/25 13:03:11;;;;;;;10.27;2.17;;;;;;;20.97;40.62;100429.44;16124050;19;129193;-42
2023/03/25 13:08:55;;;;;;;12.88;2.30;;;;;;;20.94;40.98;100420.78;16122865;19;129614;-41
2023/03/25 13:14:26;;;;;;;9.70;2.10;;;;;;;20.87;40.69;100419.13;16121945;19;129421;-42
2023/03/25 13:19:59;;;;;;;22.70;2.90;;;;;;;20.83;40.94;100412.41;16118562;19;131595;-40
2023/03/25 13:25:27;;;;;;;12.18;2.25;;;;;;;20.80;41.37;100415.75;16121026;19;134837;-42
2023/03/25 13:30:49;;;;;;;13.82;2.55;;;;;;;20.75;41.21;100413.78;16118310;19;129619;-42
2023/03/25 13:36:34;;;;;;;11.90;2.13;;;;;;;20.77;41.31;100424.66;16119846;19;129091;-40
2023/03/25 13:42:05;;;;;;;17.05;2.20;;;;;;;20.73;41.38;100418.78;16119114;19;129428;-41
2023/03/25 13:47:36;;;;;;;11.00;2.25;;;;;;;20.70;41.36;100408.19;16112566;19;130808;-42
2023/03/25 13:53:13;;;;;;;15.50;2.35;;;;;;;20.68;41.23;100421.53;16118307;19;129564;-41
2023/03/25 13:59:05;;;;;;;24.27;2.38;;;;;;;20.67;40.44;100419.03;16117177;19;129226;-43
2023/03/25 14:05:17;;;;;;;18.90;1.98;;;;;;;20.66;40.45;100428.47;16119292;19;129859;-41
2023/03/25 14:10:46;;;;;;;21.40;2.67;;;;;;;20.65;40.70;100432.34;16111541;19;129501;-43
2023/03/25 14:16:13;;;;;;;24.70;3.13;;;;;;;20.62;40.38;100441.22;16111848;19;130322;-40
2023/03/25 14:21:37;;;;;;;19.38;2.28;;;;;;;20.59;40.05;100435.09;16109442;19;129483;-43
2023/03/25 14:27:04;;;;;;;16.38;2.60;;;;;;;20.60;40.15;100452.63;16106369;19;129801;-40
2023/03/25 14:32:34;;;;;;;13.23;2.63;;;;;;;20.56;40.06;100435.63;16106965;19;130431;-41
2023/03/25 14:38:08;;;;;;;13.93;2.53;;;;;;;20.57;40.27;100436.50;16109009;19;132970;-41
2023/03/25 14:43:45;;;;;;;14.50;2.65;;;;;;;20.55;40.10;100438.69;16116841;19;129516;-41
2023/03/25 14:49:21;;;;;;;11.82;2.30;;;;;;;20.54;40.09;100449.00;16115115;19;131871;-41
2023/03/25 14:54:48;;;;;;;15.43;2.83;;;;;;;20.51;40.11;100459.78;16116233;19;129954;-40
2023/03/25 15:00:25;;;;;;;9.43;2.38;;;;;;;20.52;39.77;100483.69;16111727;19;129255;-42
2023/03/25 15:05:55;;;;;;;8.95;2.22;;;;;;;20.50;39.77;100494.25;16113067;19;131826;-41
2023/03/25 15:11:32;;;;;;;9.60;2.47;;;;;;;20.46;39.35;100491.16;16115947;19;131625;-41
2023/03/25 15:17:00;;;;;;;9.30;2.15;;;;;;;20.45;39.53;100503.38;16115034;19;129858;-42
2023/03/25 15:22:22;;;;;;;11.73;2.40;;;;;;;20.43;39.58;100491.72;16114163;19;129887;-42
2023/03/25 15:27:47;;;;;;;15.88;2.72;;;;;;;20.41;39.95;100491.16;16114025;19;129310;-40
2023/03/25 15:33:12;;;;;;;10.13;2.27;;;;;;;20.39;39.63;100499.75;16110386;19;130579;-44
2023/03/25 15:39:11;;;;;;;16.80;2.50;;;;;;;20.41;40.10;100493.94;16115561;19;129680;-45
2023/03/25 15:44:52;;;;;;;13.85;2.05;;;;;;;20.41;39.79;100491.97;16128046;19;131163;-42
2023/03/25 15:50:16;;;;;;;9.13;1.90;;;;;;;20.41;40.10;100489.22;16120104;19;130115;-45
2023/03/25 15:55:41;;;;;;;9.27;2.47;;;;;;;20.44;40.15;100482.25;16125409;19;133887;-43
2023/03/25 16:01:16;;;;;;;10.73;2.40;;;;;;;20.41;40.31;100494.75;16126121;19;129789;-41
2023/03/25 16:06:42;;;;;;;11.23;2.42;;;;;;;20.43;40.06;100506.44;16120567;19;129918;-44
2023/03/25 16:12:08;;;;;;;14.45;2.88;;;;;;;20.45;40.54;100517.28;16124727;19;130878;-45
2023/03/25 16:17:32;;;;;;;;;;;;;;;20.47;40.53;100522.59;16124219;19;130374;-43
2023/03/25 16:22:57;;;;;;;12.23;2.25;;;;;;;20.53;40.46;100525.13;16118931;19;130458;-41
2023/03/25 16:28:27;;;;;;;15.68;2.35;;;;;;;20.59;40.73;100535.16;16126863;19;129626;-41
2023/03/25 16:33:50;;;;;;;26.20;2.60;;;;;;;20.62;40.20;100519.88;16121340;19;130700;-40
2023/03/25 16:39:14;;;;;;;15.82;2.35;;;;;;;20.65;40.42;100522.13;16118389;19;130203;-41
2023/03/25 16:44:36;;;;;;;15.63;2.45;;;;;;;20.68;40.59;100534.63;16121075;19;130968;-41
2023/03/25 16:50:00;;;;;;;24.00;2.65;;;;;;;20.69;40.17;100539.94;16120265;19;129318;-41
2023/03/25 16:55:30;;;;;;;15.68;2.75;;;;;;;20.73;40.43;100548.56;16123530;19;130418;-41
2023/03/25 17:00:54;;;;;;;12.43;2.40;;;;;;;20.70;40.52;100546.31;16124591;19;129287;-41
2023/03/25 17:06:27;;;;;;;13.68;2.25;;;;;;;20.71;40.95;100559.13;16122856;19;129312;-41
2023/03/25 17:11:55;;;;;;;22.50;2.78;;;;;;;20.69;40.56;100567.75;16120280;19;130559;-43
2023/03/25 17:17:45;;;;;;;13.55;2.25;;;;;;;20.70;41.01;100582.47;16121326;19;129681;-41
2023/03/25 17:23:26;;;;;;;9.40;2.25;;;;;;;20.71;41.12;100575.78;16118368;19;130589;-42
2023/03/25 17:28:53;;;;;;;14.55;2.53;;;;;;;20.70;40.94;100590.78;16119749;19;130243;-40
2023/03/25 17:34:21;;;;;;;10.45;2.08;;;;;;;20.71;41.48;100600.81;16119580;19;129413;-41
2023/03/25 17:39:47;;;;;;;13.85;2.80;;;;;;;20.69;41.43;100611.34;16115066;19;130882;-41
2023/03/25 17:45:14;;;;;;;11.80;2.20;;;;;;;20.64;41.37;100614.94;16117684;19;130475;-41
2023/03/25 17:50:36;;;;;;;10.40;2.08;;;;;;;20.56;41.43;100619.06;16115740;19;135425;-41
2023/03/25 17:56:02;;;;;;;10.30;2.33;;;;;;;20.50;41.65;100625.69;16117702;19;130280;-43
2023/03/25 18:01:26;;;;;;;12.85;2.45;;;;;;;20.41;41.69;100630.09;16113305;19;129822;-42
2023/03/25 18:06:50;;;;;;;10.17;2.33;;;;;;;20.34;41.53;100646.13;16115307;19;129457;-41
2023/03/25 18:12:12;;;;;;;15.10;2.88;;;;;;;20.27;41.59;100643.56;16117755;19;129369;-40
2023/03/25 18:17:37;;;;;;;14.63;2.75;;;;;;;20.22;41.94;100652.69;16116468;19;129915;-41
2023/03/25 18:23:00;;;;;;;26.42;3.55;;;;;;;20.17;42.07;100672.09;16115443;19;131041;-41
2023/03/25 18:28:23;;;;;;;22.05;3.15;;;;;;;20.15;41.98;100682.63;16117516;19;131708;-42
2023/03/25 18:33:50;;;;;;;25.52;3.90;;;;;;;20.24;41.74;100683.00;16114238;19;130605;-41
2023/03/25 18:39:14;;;;;;;16.30;3.05;;;;;;;20.42;41.93;100673.44;16116433;19;129147;-41
2023/03/25 18:44:37;;;;;;;17.00;3.03;;;;;;;20.67;41.65;100675.56;16114069;19;135428;-42
2023/03/25 18:49:59;;;;;;;21.38;3.30;;;;;;;20.92;41.33;100665.75;16116699;19;130039;-41
2023/03/25 18:55:23;;;;;;;13.00;2.70;;;;;;;21.16;40.82;100651.44;16117927;19;130355;-44
2023/03/25 19:00:46;;;;;;;22.20;3.50;;;;;;;21.35;40.38;100657.38;16113884;19;130188;-44
2023/03/25 19:06:11;;;;;;;20.83;3.65;;;;;;;21.49;39.92;100664.16;16113628;19;129645;-51
2023/03/25 19:11:34;;;;;;;13.30;2.67;;;;;;;21.63;39.78;100670.03;16110684;19;130431;-42
2023/03/25 19:16:56;;;;;;;11.98;2.35;;;;;;;21.73;39.85;100677.59;16113082;19;131777;-42
2023/03/25 19:22:25;;;;;;;15.98;3.00;;;;;;;21.79;39.96;100679.25;16114645;19;131814;-42
2023/03/25 19:27:47;;;;;;;16.08;2.88;;;;;;;21.83;39.70;100672.03;16110228;19;129563;-43
2023/03/25 19:33:10;;;;;;;17.17;2.63;;;;;;;21.82;39.61;100670.38;16113279;19;129306;-42
2023/03/25 19:38:31;;;;;;;22.15;3.00;;;;;;;21.79;39.55;100662.56;16109228;19;130313;-44
2023/03/25 19:43:53;;;;;;;18.83;2.50;;;;;;;21.72;39.73;100662.00;16103496;19;129737;-45
2023/03/25 19:49:15;;;;;;;26.35;2.95;;;;;;;21.64;39.69;100656.97;16110774;19;130611;-46
2023/03/25 19:54:50;;;;;;;18.52;3.22;;;;;;;21.55;39.50;100661.34;16111787;19;130015;-46
2023/03/25 20:00:15;;;;;;;24.73;3.20;;;;;;;21.46;39.25;100659.09;16109218;19;131159;-45
2023/03/25 20:05:37;;;;;;;28.23;4.22;;;;;;;21.40;39.41;100665.75;16108043;19;130239;-42
2023/03/25 20:10:59;;;;;;;17.52;3.33;;;;;;;21.31;39.32;100670.13;16111403;19;129275;-43
2023/03/25 20:16:22;;;;;;;26.33;3.50;;;;;;;21.25;39.45;100679.59;16109502;19;130865;-45
2023/03/25 20:21:44;;;;;;;29.13;4.10;;;;;;;21.19;39.02;100676.75;16108575;19;130552;-42
2023/03/25 20:27:06;;;;;;;26.25;3.50;;;;;;;21.10;38.86;100681.16;16121639;19;129563;-43
2023/03/25 20:32:27;;;;;;;37.92;4.57;;;;;;;21.02;38.37;100681.69;16120440;19;130896;-42
2023/03/25 20:38:02;;;;;;;61.50;7.10;;;;;;;21.02;38.98;100676.94;16121612;19;135220;-43
2023/03/25 20:43:24;;;;;;;55.90;6.35;;;;;;;21.03;38.75;100684.19;16118782;19;129610;-43
2023/03/25 20:48:46;;;;;;;45.00;6.57;;;;;;;21.07;38.97;100684.47;16116655;19;130632;-42
2023/03/25 20:54:09;;;;;;;53.53;5.45;;;;;;;21.09;39.18;100682.28;16117928;19;129571;-42
2023/03/25 20:59:31;;;;;;;39.90;5.95;;;;;;;21.13;38.99;100700.09;16118730;19;129469;-42
2023/03/25 21:04:55;;;;;;;48.28;5.85;;;;;;;21.12;39.35;100698.44;16116613;19;132110;-43
2023/03/25 21:10:18;;;;;;;41.65;5.95;;;;;;;21.10;39.36;100697.84;16120318;19;129754;-41
2023/03/25 21:15:41;;;;;;;33.15;5.22;;;;;;;21.08;39.50;100697.28;16119222;19;130965;-45
2023/03/25 21:21:03;;;;;;;47.10;6.53;;;;;;;21.10;40.39;100695.06;16118763;19;130482;-41
2023/03/25 21:26:25;;;;;;;43.92;4.75;;;;;;;21.11;40.69;100705.09;16121188;19;129510;-44
2023/03/25 21:31:47;;;;;;;37.33;5.07;;;;;;;21.14;40.79;100701.78;16119046;19;131710;-42
2023/03/25 21:37:09;;;;;;;48.65;5.85;;;;;;;21.15;40.62;100702.59;16118641;19;129821;-42
2023/03/25 21:42:32;;;;;;;33.78;5.45;;;;;;;21.12;40.80;100704.00;16119719;19;131121;-42
2023/03/25 21:47:54;;;;;;;36.13;5.38;;;;;;;21.08;40.97;100713.16;16119293;19;129519;-42
2023/03/25 21:53:18;;;;;;;29.85;4.47;;;;;;;21.03;41.52;100716.75;16115210;19;129893;-45
2023/03/25 21:58:40;;;;;;;35.20;4.70;;;;;;;20.98;41.54;100719.47;16118840;19;131513;-45
2023/03/25 22:04:02;;;;;;;30.55;5.05;;;;;;;20.93;41.85;100720.28;16116359;19;131312;-44
2023/03/25 22:09:24;;;;;;;38.40;5.53;;;;;;;20.88;41.98;100715.53;16116323;19;130772;-44
2023/03/25 22:14:46;;;;;;;32.38;4.93;;;;;;;20.78;41.85;100723.78;16115835;19;129311;-45
2023/03/25 22:20:09;;;;;;;31.20;3.97;;;;;;;20.72;41.80;100733.16;16118896;19;130819;-47
2023/03/25 22:25:30;;;;;;;41.08;4.97;;;;;;;20.67;41.61;100725.59;16116949;19;129457;-43
2023/03/25 22:30:52;;;;;;;24.10;4.22;;;;;;;20.59;41.72;100732.47;16114073;19;129951;-45
2023/03/25 22:36:15;;;;;;;40.75;5.20;;;;;;;20.53;41.51;100733.56;16116028;19;129530;-42
2023/03/25 22:41:37;;;;;;;19.20;4.28;;;;;;;20.44;41.26;100724.84;16113788;19;129697;-44
2023/03/25 22:46:59;;;;;;;23.17;4.25;;;;;;;20.38;41.64;100717.56;16106785;19;131409;-42
2023/03/25 22:52:21;;;;;;;19.25;3.92;;;;;;;20.33;41.25;100720.31;16110505;19;129452;-44
2023/03/25 22:57:43;;;;;;;23.48;4.15;;;;;;;20.28;41.42;100709.13;16106724;19;130524;-42
2023/03/25 23:03:07;;;;;;;19.55;3.65;;;;;;;20.22;41.58;100707.41;16102819;19;130900;-43
2023/03/25 23:08:33;;;;;;;21.95;3.15;;;;;;;20.19;41.17;100708.75;16108235;19;131230;-43
2023/03/25 23:14:05;;;;;;;20.38;3.90;;;;;;;20.17;41.63;100704.56;16109882;19;130883;-43
2023/03/25 23:19:27;;;;;;;20.27;4.00;;;;;;;20.11;41.37;100706.47;16111875;19;131356;-45
2023/03/25 23:24:49;;;;;;;28.60;3.72;;;;;;;20.07;41.35;100702.53;16108588;19;129363;-42
2023/03/25 23:30:11;;;;;;;21.67;4.05;;;;;;;20.03;41.34;100704.16;16110375;19;129428;-41
2023/03/25 23:35:33;;;;;;;24.33;3.38;;;;;;;19.99;41.33;100693.56;16111843;19;129304;-42
2023/03/25 23:41:06;;;;;;;22.80;3.97;;;;;;;19.97;41.01;100683.81;16108314;19;130341;-42
2023/03/25 23:46:28;;;;;;;19.02;3.45;;;;;;;19.93;41.26;100689.06;16110966;19;131322;-45
2023/03/25 23:51:50;;;;;;;15.52;3.40;;;;;;;19.89;41.53;100681.47;16105506;19;130495;-41
2023/03/25 23:57:13;;;;;;;15.48;3.50;;;;;;;19.86;41.33;100671.75;16107031;19;130808;-44
